Houston's Hourly Summary for Friday, March 17, 2017
Hour Temp
(f)
RH
(%)
Solar Rad.
(MJ/m2)
Rainfall
(in)
Wind
(mph)
3/17/2017 12:00 AM 67 93 0 0 5.39
3/17/2017 1:00 AM 67 92 0 0 5.72
3/17/2017 2:00 AM 66 94 0 0 5.29
3/17/2017 3:00 AM 66 96 0 0 5.73
3/17/2017 4:00 AM 66 97 0 0 5.64
3/17/2017 5:00 AM 65 97 0 0 4.34
3/17/2017 6:00 AM 64 98 0 0 1.91
3/17/2017 7:00 AM 64 99 0 0 1.34
3/17/2017 8:00 AM 65 97 0.03 0 2.75
3/17/2017 9:00 AM 66 87 0.29 0 4.31
3/17/2017 10:00 AM 70 72 1.11 0 7.67
3/17/2017 11:00 AM 72 65 1.52 0 8.59
3/17/2017 12:00 PM 74 62 1.72 0 8.46
3/17/2017 1:00 PM 75 59 1.91 0 8.15
3/17/2017 2:00 PM 75 60 2.17 0 9.3
3/17/2017 3:00 PM 76 58 2.27 0 8.92
3/17/2017 4:00 PM 76 58 2.31 0 9.56
3/17/2017 5:00 PM 75 59 1.45 0 9.54
3/17/2017 6:00 PM 74 62 1.11 0 9.32
3/17/2017 7:00 PM 73 63 0.52 0 8.06
3/17/2017 8:00 PM 71 70 0.06 0 7.14
3/17/2017 9:00 PM 69 75 0 0 4.95
3/17/2017 10:00 PM 67 81 0 0 3.46
3/17/2017 11:00 PM 66 92 0 0 3.25
Data Summary 69 78 16.47 0.00 6.20